Hope, British Columbia

9:06 PM PDT on July 26, 2017 (GMT -0700)
Hope | | Change Station

Elev 128 ft 49.37 °N, 121.48 °W | Updated 6 minutes ago

Mostly Cloudy
Mostly Cloudy
72 °F
Feels Like 72 °F
N
7
Wind Variable Wind from SSW

Today
High -- | Low -- °F
--% Chance of Precip.
Yesterday
High -- | Low -- °F
Precip. -- in
Pressure 29.98 in
Visibility 9.0 miles
Clouds Mostly Cloudy 25000 ft
Dew Point 57 °F
Humidity 60%
Rainfall 0.00 in
Snow Depth Not available.
5:30 AM 8:54 PM
Waxing Crescent, 18% visible
METAR CYHE 270400Z AUTO 21006KT 9SM BKN250 22/14 A2997 RMK SLP151 DENSITY ALT 800FT
Pressure 29.98 in
Visibility 9.0 miles
Clouds Mostly Cloudy 25000 ft
Dew Point 57 °F
Humidity 60%
Rainfall 0.00 in
Snow Depth Not available.
5:30 AM 8:54 PM
Waxing Crescent, 18% visible
METAR CYHE 270400Z AUTO 21006KT 9SM BKN250 22/14 A2997 RMK SLP151 DENSITY ALT 800FT

Get Severe Weather Alerts

Thanks for signing up!

Be on the lookout for a verification email in your inbox.

You'll start receiving the daily forecast at 6 AM.

×

10-Day Weather Forecast

Almanac

Astronomy

Jul. 26, 2017 Rise Set
Actual Time
Civil Twilight
Nautical Twilight
Astronomical Twilight
Moon
Length of Visible Light
Length of Day
Tomorrow will be .
, % of the Moon is Illuminated

Today's Extremes

Country Highs Country Lows

Community

WunderPhotos

Category 6

Welcome to Category 6. This is the collective home for Weather Underground's featured writeups by Dr. Jeff Masters (right), Bob Henson (left), Chris Burt, and other regular contributors.

Nearby

Air Quality

  Air Quality AQ Index Pollutant
Not available.

Snow Depth

Station Depth Elevation

Earthquake Activity

City Distance Mag. Time & Date
Minimum magnitude displayed is 2.5.

Coastal Water Temperatures

Place Temperature

Stations

Nearby Weather Stations

Station Location Temp. Windchill Dew Point Humidity Wind Precip. Elev Updated Type
                   

Watches & Warnings

There are currently no watches in effect.